Address 0xf5b3bd74715bd97f30c492589b1dc9d4df9d5c50 1

 
 
Txn Hash Method
Block
From
To
Value [Txn Fee]
0x1d107f9333d9af2fb0844c950bc1529ff17e9d1cf69fe1b19cee816d89dc59ceTransfer105066602021-08-31 11:54:5723 days 2 hrs ago0xf5b3bd74715bd97f30c492589b1dc9d4df9d5c50OUT BUSD-T Stablecoin0 BNB0.000105575
0xbf571b1516eaad50774ddc9347cda9d8780e68e152e993d861b020af910d6393Approve105051952021-08-31 10:39:2423 days 3 hrs ago0xf5b3bd74715bd97f30c492589b1dc9d4df9d5c50OUT BUSD-T Stablecoin0 BNB0.00014703
0x9a88a0f1a45ac363c74a04c6306e8fd512479b4207e71eebe2142a35dafeb719Open Boxes105049312021-08-31 10:26:1123 days 4 hrs ago0xf5b3bd74715bd97f30c492589b1dc9d4df9d5c50OUT 0xe3a350487d7a2b0ae2d2ec69f2cce03bb868febc0 BNB0.001840025
0xe155cd13a7ee871b9c3541684a87756969d18b2c3f20f215712e57b7477ae53cApprove105048532021-08-31 10:22:1723 days 4 hrs ago0xf5b3bd74715bd97f30c492589b1dc9d4df9d5c50OUT BUSD-T Stablecoin0 BNB0.00022203
0xd856296a774dbd6d2c29ed4afe0f38eac3de8c50497db24288b8eb1af4b1852cTransfer101398332021-08-18 15:10:4935 days 23 hrs ago0xf5b3bd74715bd97f30c492589b1dc9d4df9d5c50OUT BUSD-T Stablecoin0 BNB0.000105575
0x64d9b6833a427e6a6be393977653aef62917353fae92c457f1028c81b18b8e31Buy101384692021-08-18 14:02:1936 days 31 mins ago0xf5b3bd74715bd97f30c492589b1dc9d4df9d5c50OUT 0x508dfdd041fdfbeef5a2cd0396598c3be41ff6ff0 BNB0.00224712
0x90e6a44f7af62c0ca10e0a4fbc3a2db97fc25affec27345c968426f043cf9a2fBuy101384692021-08-18 14:02:1936 days 31 mins ago0xf5b3bd74715bd97f30c492589b1dc9d4df9d5c50OUT 0x508dfdd041fdfbeef5a2cd0396598c3be41ff6ff0 BNB0.00037452
0x965d8a6fccedb71542577346b2f50b89120bf60b9be930efb9b137c29cd06672Buy101384662021-08-18 14:02:1036 days 31 mins ago0xf5b3bd74715bd97f30c492589b1dc9d4df9d5c50OUT 0x508dfdd041fdfbeef5a2cd0396598c3be41ff6ff0 BNB0.00037452
0xd1c37af745dae26912d09eeffbd2cc648b639d56f24d41fb7b5bed3db2b5f65eApprove101374552021-08-18 13:11:3036 days 1 hr ago0xf5b3bd74715bd97f30c492589b1dc9d4df9d5c50OUT BUSD-T Stablecoin0 BNB0.00133218
0x8b1513aa381a5fda0b5d4274e4745a50ca17a254610062a953c35c9c88f68b4aTransfer101371212021-08-18 12:54:4836 days 1 hr ago0xcfeab306b8dd87bb1750f0709b9f448a435dd95f IN 0xf5b3bd74715bd97f30c492589b1dc9d4df9d5c500.1 BNB0.000105
0x16b4bec384b7dd56890b6219941f22338b2b3397de014b6b0b7eb6d5fead0d03Transfer100529752021-08-15 14:37:1538 days 23 hrs ago0xf5b3bd74715bd97f30c492589b1dc9d4df9d5c50OUT0xcfeab306b8dd87bb1750f0709b9f448a435dd95f0.08766207 BNB0.000105
0x96117e22a1da360f6e3f7dc3e26fa52576deb5dd1c391b0cd43a092c6042037a0x01c4bcc3100529612021-08-15 14:36:3338 days 23 hrs ago0xf5b3bd74715bd97f30c492589b1dc9d4df9d5c50OUT 0x746070ef5f8c63b7ef13d1e4447490430ac3c3dd0 BNB0.00037639
0x026a4cf55368a335a78f534b8238cd2c19c1f93f2ff794432bbac6ae4ac640650x01c4bcc3100529502021-08-15 14:36:0038 days 23 hrs ago0xf5b3bd74715bd97f30c492589b1dc9d4df9d5c50OUT 0x746070ef5f8c63b7ef13d1e4447490430ac3c3dd0 BNB0.00049339
0x8eef82b1f806d4d738207035de10ad909fbda156c2cc7ab91f2aace846e939f20x01c4bcc3100529352021-08-15 14:35:1538 days 23 hrs ago0xf5b3bd74715bd97f30c492589b1dc9d4df9d5c50OUT 0x746070ef5f8c63b7ef13d1e4447490430ac3c3dd0 BNB0.00049339
0x997f68df2c3c9a675497fe3221601e3d5ecb9e5f4c2ed9d7b73fecd009ebc5f20x01c4bcc3100528962021-08-15 14:33:1839 days ago0xf5b3bd74715bd97f30c492589b1dc9d4df9d5c50OUT 0x746070ef5f8c63b7ef13d1e4447490430ac3c3dd0 BNB0.00049339
0x812ba19dcafedda816fef53c2eadceb0da2cb4555beb1171adafc867ea1aec570x01c4bcc3100528792021-08-15 14:32:2739 days 1 min ago0xf5b3bd74715bd97f30c492589b1dc9d4df9d5c50OUT 0x746070ef5f8c63b7ef13d1e4447490430ac3c3dd0 BNB0.00015946
0x5b9249a93299062d0da4d4df9a008a5e4606a35830e46a461f27f4c05bb042b70x01c4bcc3100528772021-08-15 14:32:2139 days 1 min ago0xf5b3bd74715bd97f30c492589b1dc9d4df9d5c50OUT 0x746070ef5f8c63b7ef13d1e4447490430ac3c3dd0 BNB0.00015946
0x8acac0f6aeb08f8c11bf9b74c3ee8a2ee1bd8bc33e9caa84e67020a15a586fc90x01c4bcc3100528742021-08-15 14:32:1239 days 1 min ago0xf5b3bd74715bd97f30c492589b1dc9d4df9d5c50OUT 0x746070ef5f8c63b7ef13d1e4447490430ac3c3dd0 BNB0.00049339
0xa5eae60c7c67c89f94ba8d320fedacc4c8f1311f4452b7072d61c51c9028209cBuy100522462021-08-15 14:00:4639 days 32 mins ago0xf5b3bd74715bd97f30c492589b1dc9d4df9d5c50OUT 0x190fdbb6bb59b3e6c5f561fb6ae71a09fa4001160 BNB0.00822897
0x7a2d92ffaac853cd9523636663e8743d7b935840eb70a5a0b298a7d9dd92919cApprove100517312021-08-15 13:35:0139 days 58 mins ago0xf5b3bd74715bd97f30c492589b1dc9d4df9d5c50OUT 0x82c19905b036bf4e329740989dcf6ae441ae26c10 BNB0.00133509
0x1b76c1aab91db6f0c99287707d7ba78bddcf54875a0c9b629321824ffaef01acTransfer100512052021-08-15 13:08:4339 days 1 hr ago0xcfeab306b8dd87bb1750f0709b9f448a435dd95f IN 0xf5b3bd74715bd97f30c492589b1dc9d4df9d5c500.1 BNB0.000105
0x2a63ab7c4be8441b203cfe8690a58856ed1034b8de760eba4f3271c0c8ef3f54Transfer100125192021-08-14 4:45:4040 days 9 hrs ago0xf5b3bd74715bd97f30c492589b1dc9d4df9d5c50OUT0xcfeab306b8dd87bb1750f0709b9f448a435dd95f0.01498219 BNB0.000105
0xef5855b623780bf7b7170375b018eae13bab53c5fe07e38d61bdba484eade7dfFight99514122021-08-12 0:53:4142 days 13 hrs ago0xf5b3bd74715bd97f30c492589b1dc9d4df9d5c50OUT CryptoBlades: Gameplay0 BNB0.000750665
0xc8f4b6e0bd19296093b567b9125181818936df52d2e986252ea12a699ef33cbeFight99513102021-08-12 0:48:3542 days 13 hrs ago0xf5b3bd74715bd97f30c492589b1dc9d4df9d5c50OUT CryptoBlades: Gameplay0 BNB0.000746745
0x6d3aa6f2af6192e93b35248b5b889dfa5f79bdef58cfe187aea479b5499a1374Fight99513022021-08-12 0:48:1142 days 13 hrs ago0xf5b3bd74715bd97f30c492589b1dc9d4df9d5c50OUT CryptoBlades: Gameplay0 BNB0.00075247
[ Download CSV Export 
Parent Txn Hash Block From To Value
Loading

Contract Name:
0 BNB

Compiler Version
0

Optimization Enabled:
0 BNB

Other Settings:
-NA-
Block Transaction Gas Used Reward
Age Block Fee Address BC Fee Address Voting Power Jailed Incoming
Block Uncle Number Difficulty Gas Used Reward
Loading
Loading
Make sure to use the "Vote Down" button for any spammy posts, and the "Vote Up" for interesting conversations.